sensor_id;sensor_type;location;lat;lon;timestamp;pressure;altitude;pressure_sealevel;temperature;humidity
6387;BME280;3226;42.162;24.756;2023-05-18T00:01:12;99159.13;;;13.01;100.00
6387;BME280;3226;42.162;24.756;2023-05-18T00:03:41;99145.63;;;12.96;100.00
6387;BME280;3226;42.162;24.756;2023-05-18T00:06:09;99136.13;;;13.04;100.00
6387;BME280;3226;42.162;24.756;2023-05-18T00:08:37;99130.41;;;13.08;100.00
6387;BME280;3226;42.162;24.756;2023-05-18T00:11:07;99138.72;;;12.95;100.00
6387;BME280;3226;42.162;24.756;2023-05-18T00:13:35;99141.56;;;12.84;100.00
6387;BME280;3226;42.162;24.756;2023-05-18T00:16:03;99149.41;;;12.76;100.00
6387;BME280;3226;42.162;24.756;2023-05-18T00:18:31;99150.28;;;12.58;100.00
6387;BME280;3226;42.162;24.756;2023-05-18T00:21:00;99154.25;;;12.62;100.00
6387;BME280;3226;42.162;24.756;2023-05-18T00:23:29;99160.97;;;12.65;100.00
6387;BME280;3226;42.162;24.756;2023-05-18T00:25:59;99156.75;;;12.72;100.00
6387;BME280;3226;42.162;24.756;2023-05-18T00:28:29;99156.75;;;12.72;100.00
6387;BME280;3226;42.162;24.756;2023-05-18T00:30:57;99157.66;;;12.81;100.00
6387;BME280;3226;42.162;24.756;2023-05-18T00:33:26;99151.72;;;12.79;100.00
6387;BME280;3226;42.162;24.756;2023-05-18T00:35:54;99134.25;;;12.69;100.00
6387;BME280;3226;42.162;24.756;2023-05-18T00:38:23;99140.28;;;12.88;100.00
6387;BME280;3226;42.162;24.756;2023-05-18T00:40:51;99131.91;;;12.84;100.00
6387;BME280;3226;42.162;24.756;2023-05-18T00:43:19;99136.44;;;12.74;100.00
6387;BME280;3226;42.162;24.756;2023-05-18T00:45:48;99124.78;;;12.77;100.00
6387;BME280;3226;42.162;24.756;2023-05-18T00:48:16;99125.00;;;12.83;100.00
6387;BME280;3226;42.162;24.756;2023-05-18T00:50:45;99125.75;;;12.76;100.00
6387;BME280;3226;42.162;24.756;2023-05-18T00:53:13;99132.41;;;12.43;100.00
6387;BME280;3226;42.162;24.756;2023-05-18T00:55:41;99137.72;;;12.52;100.00
6387;BME280;3226;42.162;24.756;2023-05-18T00:58:09;99137.31;;;12.38;100.00
6387;BME280;3226;42.162;24.756;2023-05-18T01:00:38;99149.75;;;12.36;100.00
6387;BME280;3226;42.162;24.756;2023-05-18T01:03:08;99141.28;;;12.42;100.00
6387;BME280;3226;42.162;24.756;2023-05-18T01:05:37;99142.69;;;12.55;100.00
6387;BME280;3226;42.162;24.756;2023-05-18T01:08:06;99131.06;;;12.39;100.00
6387;BME280;3226;42.162;24.756;2023-05-18T01:10:37;99138.50;;;12.44;100.00
6387;BME280;3226;42.162;24.756;2023-05-18T01:13:12;99142.78;;;12.27;100.00
6387;BME280;3226;42.162;24.756;2023-05-18T01:15:43;99147.69;;;12.22;100.00
6387;BME280;3226;42.162;24.756;2023-05-18T01:18:25;99158.66;;;12.07;100.00
6387;BME280;3226;42.162;24.756;2023-05-18T01:20:58;99166.44;;;11.99;100.00
6387;BME280;3226;42.162;24.756;2023-05-18T01:24:00;99165.81;;;11.87;100.00
6387;BME280;3226;42.162;24.756;2023-05-18T01:26:33;99147.88;;;11.82;100.00
6387;BME280;3226;42.162;24.756;2023-05-18T01:29:05;99159.75;;;11.86;100.00
6387;BME280;3226;42.162;24.756;2023-05-18T01:31:35;99156.84;;;11.90;100.00
6387;BME280;3226;42.162;24.756;2023-05-18T01:34:04;99163.56;;;11.92;100.00
6387;BME280;3226;42.162;24.756;2023-05-18T01:36:32;99171.00;;;11.97;100.00
6387;BME280;3226;42.162;24.756;2023-05-18T01:39:01;99164.16;;;11.86;100.00
6387;BME280;3226;42.162;24.756;2023-05-18T01:41:33;99162.13;;;11.80;100.00
6387;BME280;3226;42.162;24.756;2023-05-18T01:44:07;99161.09;;;11.91;100.00
6387;BME280;3226;42.162;24.756;2023-05-18T01:46:44;99166.66;;;11.88;100.00
6387;BME280;3226;42.162;24.756;2023-05-18T01:49:26;99169.78;;;11.91;100.00
6387;BME280;3226;42.162;24.756;2023-05-18T01:51:57;99178.78;;;11.89;100.00
6387;BME280;3226;42.162;24.756;2023-05-18T01:54:30;99192.94;;;11.78;100.00
6387;BME280;3226;42.162;24.756;2023-05-18T01:57:00;99194.28;;;11.82;100.00
6387;BME280;3226;42.162;24.756;2023-05-18T01:59:30;99183.38;;;11.86;100.00
6387;BME280;3226;42.162;24.756;2023-05-18T02:01:58;99195.59;;;11.96;100.00
6387;BME280;3226;42.162;24.756;2023-05-18T02:04:27;99197.25;;;11.97;100.00
6387;BME280;3226;42.162;24.756;2023-05-18T02:06:55;99189.00;;;11.92;100.00
6387;BME280;3226;42.162;24.756;2023-05-18T02:09:23;99203.47;;;11.96;100.00
6387;BME280;3226;42.162;24.756;2023-05-18T02:11:52;99198.44;;;11.84;100.00
6387;BME280;3226;42.162;24.756;2023-05-18T02:14:21;99201.72;;;11.86;100.00
6387;BME280;3226;42.162;24.756;2023-05-18T02:16:49;99209.31;;;11.90;100.00
6387;BME280;3226;42.162;24.756;2023-05-18T02:19:19;99219.19;;;12.06;100.00
6387;BME280;3226;42.162;24.756;2023-05-18T02:21:47;99220.34;;;12.21;100.00
6387;BME280;3226;42.162;24.756;2023-05-18T02:24:15;99222.66;;;12.24;100.00
6387;BME280;3226;42.162;24.756;2023-05-18T02:26:44;99222.53;;;12.26;100.00
6387;BME280;3226;42.162;24.756;2023-05-18T02:29:12;99219.53;;;12.21;100.00
6387;BME280;3226;42.162;24.756;2023-05-18T02:31:41;99202.69;;;12.13;100.00
6387;BME280;3226;42.162;24.756;2023-05-18T02:34:10;99224.28;;;12.07;100.00
6387;BME280;3226;42.162;24.756;2023-05-18T02:36:38;99229.06;;;12.22;100.00
6387;BME280;3226;42.162;24.756;2023-05-18T02:39:08;99227.81;;;12.16;100.00
6387;BME280;3226;42.162;24.756;2023-05-18T02:41:37;99227.22;;;12.22;100.00
6387;BME280;3226;42.162;24.756;2023-05-18T02:44:05;99230.19;;;12.37;100.00
6387;BME280;3226;42.162;24.756;2023-05-18T02:46:33;99225.84;;;12.46;100.00
6387;BME280;3226;42.162;24.756;2023-05-18T02:49:02;99227.69;;;12.36;100.00
6387;BME280;3226;42.162;24.756;2023-05-18T02:51:30;99229.06;;;12.40;100.00
6387;BME280;3226;42.162;24.756;2023-05-18T02:53:58;99226.16;;;12.43;100.00
6387;BME280;3226;42.162;24.756;2023-05-18T02:56:26;99221.19;;;12.58;100.00
6387;BME280;3226;42.162;24.756;2023-05-18T02:58:54;99216.97;;;12.65;100.00
6387;BME280;3226;42.162;24.756;2023-05-18T03:01:24;99221.09;;;12.68;100.00
6387;BME280;3226;42.162;24.756;2023-05-18T03:03:53;99209.59;;;12.69;100.00
6387;BME280;3226;42.162;24.756;2023-05-18T03:06:25;99215.63;;;12.61;100.00
6387;BME280;3226;42.162;24.756;2023-05-18T03:08:53;99229.06;;;12.40;100.00
6387;BME280;3226;42.162;24.756;2023-05-18T03:11:21;99229.81;;;12.50;100.00
6387;BME280;3226;42.162;24.756;2023-05-18T03:13:49;99243.63;;;12.52;100.00
6387;BME280;3226;42.162;24.756;2023-05-18T03:16:17;99237.22;;;12.37;100.00
6387;BME280;3226;42.162;24.756;2023-05-18T03:18:45;99245.94;;;12.37;100.00
6387;BME280;3226;42.162;24.756;2023-05-18T03:21:13;99253.06;;;12.45;100.00
6387;BME280;3226;42.162;24.756;2023-05-18T03:23:43;99251.25;;;12.46;100.00
6387;BME280;3226;42.162;24.756;2023-05-18T03:26:11;99260.59;;;12.58;100.00
6387;BME280;3226;42.162;24.756;2023-05-18T03:28:39;99259.91;;;12.56;100.00
6387;BME280;3226;42.162;24.756;2023-05-18T03:31:07;99266.59;;;12.68;100.00
6387;BME280;3226;42.162;24.756;2023-05-18T03:33:35;99264.25;;;12.47;100.00
6387;BME280;3226;42.162;24.756;2023-05-18T03:36:04;99257.22;;;12.20;100.00
6387;BME280;3226;42.162;24.756;2023-05-18T03:38:32;99280.22;;;12.54;100.00
6387;BME280;3226;42.162;24.756;2023-05-18T03:41:01;99273.25;;;12.44;100.00
6387;BME280;3226;42.162;24.756;2023-05-18T03:43:30;99275.06;;;12.44;100.00
6387;BME280;3226;42.162;24.756;2023-05-18T03:45:58;99285.19;;;12.39;100.00
6387;BME280;3226;42.162;24.756;2023-05-18T03:48:26;99278.03;;;12.31;100.00
6387;BME280;3226;42.162;24.756;2023-05-18T03:50:54;99282.78;;;12.46;100.00
6387;BME280;3226;42.162;24.756;2023-05-18T03:53:23;99283.94;;;12.61;100.00
6387;BME280;3226;42.162;24.756;2023-05-18T03:55:51;99282.59;;;12.57;100.00
6387;BME280;3226;42.162;24.756;2023-05-18T03:58:21;99281.75;;;12.75;100.00
6387;BME280;3226;42.162;24.756;2023-05-18T04:00:49;99272.66;;;12.87;100.00
6387;BME280;3226;42.162;24.756;2023-05-18T04:03:18;99273.56;;;12.78;100.00
6387;BME280;3226;42.162;24.756;2023-05-18T04:05:47;99279.81;;;12.77;100.00
6387;BME280;3226;42.162;24.756;2023-05-18T04:08:15;99282.28;;;12.78;100.00
6387;BME280;3226;42.162;24.756;2023-05-18T04:10:43;99282.94;;;12.44;100.00
6387;BME280;3226;42.162;24.756;2023-05-18T04:13:12;99284.34;;;12.38;100.00
6387;BME280;3226;42.162;24.756;2023-05-18T04:15:41;99276.88;;;12.15;100.00
6387;BME280;3226;42.162;24.756;2023-05-18T04:18:10;99305.56;;;12.27;100.00
6387;BME280;3226;42.162;24.756;2023-05-18T04:20:39;99309.59;;;12.21;100.00
6387;BME280;3226;42.162;24.756;2023-05-18T04:23:08;99311.16;;;12.14;100.00
6387;BME280;3226;42.162;24.756;2023-05-18T04:25:36;99317.50;;;12.11;100.00
6387;BME280;3226;42.162;24.756;2023-05-18T04:28:05;99314.59;;;12.14;100.00
6387;BME280;3226;42.162;24.756;2023-05-18T04:30:34;99329.56;;;12.32;100.00
6387;BME280;3226;42.162;24.756;2023-05-18T04:33:04;99332.59;;;12.37;100.00
6387;BME280;3226;42.162;24.756;2023-05-18T04:35:33;99327.03;;;12.40;100.00
6387;BME280;3226;42.162;24.756;2023-05-18T04:38:01;99326.69;;;12.53;100.00
6387;BME280;3226;42.162;24.756;2023-05-18T04:40:30;99321.53;;;12.62;100.00
6387;BME280;3226;42.162;24.756;2023-05-18T04:42:59;99320.06;;;12.77;100.00
6387;BME280;3226;42.162;24.756;2023-05-18T04:45:27;99304.13;;;12.79;100.00
6387;BME280;3226;42.162;24.756;2023-05-18T04:47:56;99307.72;;;12.60;100.00
6387;BME280;3226;42.162;24.756;2023-05-18T04:50:25;99317.09;;;12.62;100.00
6387;BME280;3226;42.162;24.756;2023-05-18T04:52:54;99310.97;;;12.71;100.00
6387;BME280;3226;42.162;24.756;2023-05-18T04:55:25;99317.47;;;12.67;100.00
6387;BME280;3226;42.162;24.756;2023-05-18T04:57:54;99321.03;;;12.76;100.00
6387;BME280;3226;42.162;24.756;2023-05-18T05:00:24;99318.31;;;12.86;100.00
6387;BME280;3226;42.162;24.756;2023-05-18T05:02:52;99317.25;;;12.97;100.00
6387;BME280;3226;42.162;24.756;2023-05-18T05:05:33;99322.38;;;12.98;100.00
6387;BME280;3226;42.162;24.756;2023-05-18T05:08:01;99314.03;;;13.03;100.00
6387;BME280;3226;42.162;24.756;2023-05-18T05:10:30;99309.66;;;13.12;100.00
6387;BME280;3226;42.162;24.756;2023-05-18T05:12:58;99309.66;;;13.12;100.00
6387;BME280;3226;42.162;24.756;2023-05-18T05:15:26;99307.34;;;13.09;100.00
6387;BME280;3226;42.162;24.756;2023-05-18T05:17:54;99309.53;;;13.13;100.00
6387;BME280;3226;42.162;24.756;2023-05-18T05:20:22;99307.56;;;13.15;100.00
6387;BME280;3226;42.162;24.756;2023-05-18T05:22:52;99311.94;;;13.07;100.00
6387;BME280;3226;42.162;24.756;2023-05-18T05:25:20;99312.59;;;12.72;100.00
6387;BME280;3226;42.162;24.756;2023-05-18T05:27:48;99339.25;;;12.78;100.00
6387;BME280;3226;42.162;24.756;2023-05-18T05:30:16;99345.72;;;12.83;100.00
6387;BME280;3226;42.162;24.756;2023-05-18T05:32:44;99348.06;;;13.05;100.00
6387;BME280;3226;42.162;24.756;2023-05-18T05:35:12;99348.00;;;13.14;100.00
6387;BME280;3226;42.162;24.756;2023-05-18T05:37:41;99346.22;;;13.23;100.00
6387;BME280;3226;42.162;24.756;2023-05-18T05:40:11;99335.53;;;13.16;100.00
6387;BME280;3226;42.162;24.756;2023-05-18T05:42:39;99343.72;;;13.13;100.00
6387;BME280;3226;42.162;24.756;2023-05-18T05:45:07;99339.78;;;13.18;100.00
6387;BME280;3226;42.162;24.756;2023-05-18T05:47:36;99346.22;;;13.23;100.00
6387;BME280;3226;42.162;24.756;2023-05-18T05:50:04;99342.63;;;13.24;100.00
6387;BME280;3226;42.162;24.756;2023-05-18T05:52:33;99348.28;;;13.11;100.00
6387;BME280;3226;42.162;24.756;2023-05-18T05:55:01;99361.03;;;13.06;100.00
6387;BME280;3226;42.162;24.756;2023-05-18T05:57:31;99368.41;;;13.21;100.00
6387;BME280;3226;42.162;24.756;2023-05-18T05:59:59;99361.75;;;13.26;100.00
6387;BME280;3226;42.162;24.756;2023-05-18T06:02:27;99359.56;;;13.22;100.00
6387;BME280;3226;42.162;24.756;2023-05-18T06:04:55;99367.94;;;13.07;100.00
6387;BME280;3226;42.162;24.756;2023-05-18T06:07:23;99374.94;;;12.98;100.00
6387;BME280;3226;42.162;24.756;2023-05-18T06:09:51;99376.91;;;12.96;100.00
6387;BME280;3226;42.162;24.756;2023-05-18T06:12:19;99384.88;;;13.05;100.00
6387;BME280;3226;42.162;24.756;2023-05-18T06:14:49;99390.56;;;13.00;100.00
6387;BME280;3226;42.162;24.756;2023-05-18T06:17:19;99380.81;;;13.10;100.00
6387;BME280;3226;42.162;24.756;2023-05-18T06:19:47;99380.22;;;13.16;100.00
6387;BME280;3226;42.162;24.756;2023-05-18T06:22:16;99378.47;;;13.25;100.00
6387;BME280;3226;42.162;24.756;2023-05-18T06:24:44;99382.38;;;13.21;100.00
6387;BME280;3226;42.162;24.756;2023-05-18T06:27:12;99387.41;;;13.33;100.00
6387;BME280;3226;42.162;24.756;2023-05-18T06:29:40;99385.97;;;13.38;100.00
6387;BME280;3226;42.162;24.756;2023-05-18T06:32:11;99395.47;;;13.49;100.00
6387;BME280;3226;42.162;24.756;2023-05-18T06:34:39;99389.00;;;13.62;100.00
6387;BME280;3226;42.162;24.756;2023-05-18T06:37:08;99399.28;;;13.73;100.00
6387;BME280;3226;42.162;24.756;2023-05-18T06:39:37;99392.81;;;13.67;100.00
6387;BME280;3226;42.162;24.756;2023-05-18T06:42:06;99407.47;;;13.70;100.00
6387;BME280;3226;42.162;24.756;2023-05-18T06:44:34;99408.66;;;13.76;100.00
6387;BME280;3226;42.162;24.756;2023-05-18T06:47:02;99411.28;;;13.76;100.00
6387;BME280;3226;42.162;24.756;2023-05-18T06:49:32;99411.47;;;13.74;100.00
6387;BME280;3226;42.162;24.756;2023-05-18T06:52:00;99423.53;;;13.85;100.00
6387;BME280;3226;42.162;24.756;2023-05-18T06:54:28;99426.06;;;13.95;100.00
6387;BME280;3226;42.162;24.756;2023-05-18T06:56:56;99429.44;;;14.05;100.00
6387;BME280;3226;42.162;24.756;2023-05-18T06:59:24;99430.06;;;13.99;100.00
6387;BME280;3226;42.162;24.756;2023-05-18T07:01:52;99429.56;;;14.03;100.00
6387;BME280;3226;42.162;24.756;2023-05-18T07:04:20;99433.06;;;14.04;100.00
6387;BME280;3226;42.162;24.756;2023-05-18T07:06:50;99428.13;;;14.09;100.00
6387;BME280;3226;42.162;24.756;2023-05-18T07:09:19;99410.22;;;13.86;100.00
6387;BME280;3226;42.162;24.756;2023-05-18T07:11:48;99443.75;;;13.84;100.00
6387;BME280;3226;42.162;24.756;2023-05-18T07:14:16;99438.00;;;13.81;100.00
6387;BME280;3226;42.162;24.756;2023-05-18T07:16:44;99427.50;;;13.63;100.00
6387;BME280;3226;42.162;24.756;2023-05-18T07:19:13;99434.66;;;13.79;100.00
6387;BME280;3226;42.162;24.756;2023-05-18T07:21:41;99418.78;;;13.88;100.00
6387;BME280;3226;42.162;24.756;2023-05-18T07:24:10;99448.09;;;13.94;100.00
6387;BME280;3226;42.162;24.756;2023-05-18T07:26:38;99445.22;;;14.05;100.00
6387;BME280;3226;42.162;24.756;2023-05-18T07:29:06;99446.03;;;14.06;100.00
6387;BME280;3226;42.162;24.756;2023-05-18T07:31:34;99455.91;;;14.03;100.00
6387;BME280;3226;42.162;24.756;2023-05-18T07:34:04;99447.56;;;14.08;100.00
6387;BME280;3226;42.162;24.756;2023-05-18T07:36:33;99450.59;;;14.22;100.00
6387;BME280;3226;42.162;24.756;2023-05-18T07:39:01;99448.63;;;14.24;100.00
6387;BME280;3226;42.162;24.756;2023-05-18T07:41:31;99443.72;;;14.29;100.00
6387;BME280;3226;42.162;24.756;2023-05-18T07:43:59;99445.38;;;14.30;100.00
6387;BME280;3226;42.162;24.756;2023-05-18T07:46:28;99444.66;;;14.20;100.00
6387;BME280;3226;42.162;24.756;2023-05-18T07:48:57;99449.56;;;14.14;100.00
6387;BME280;3226;42.162;24.756;2023-05-18T07:51:26;99440.81;;;14.14;100.00
6387;BME280;3226;42.162;24.756;2023-05-18T07:53:55;99444.44;;;14.13;100.00
6387;BME280;3226;42.162;24.756;2023-05-18T07:56:23;99443.34;;;14.24;100.00
6387;BME280;3226;42.162;24.756;2023-05-18T07:58:52;99432.31;;;14.20;100.00
6387;BME280;3226;42.162;24.756;2023-05-18T08:01:20;99438.44;;;14.29;100.00
6387;BME280;3226;42.162;24.756;2023-05-18T08:03:53;99446.06;;;14.32;100.00
6387;BME280;3226;42.162;24.756;2023-05-18T08:06:21;99451.94;;;14.26;100.00
6387;BME280;3226;42.162;24.756;2023-05-18T08:08:49;99455.97;;;14.38;100.00
6387;BME280;3226;42.162;24.756;2023-05-18T08:11:17;99450.56;;;14.48;100.00
6387;BME280;3226;42.162;24.756;2023-05-18T08:13:45;99453.69;;;14.43;100.00
6387;BME280;3226;42.162;24.756;2023-05-18T08:16:14;99460.31;;;14.56;100.00
6387;BME280;3226;42.162;24.756;2023-05-18T08:18:43;99463.97;;;14.63;100.00
6387;BME280;3226;42.162;24.756;2023-05-18T08:21:11;99464.81;;;14.64;100.00
6387;BME280;3226;42.162;24.756;2023-05-18T08:23:39;99450.56;;;14.48;100.00
6387;BME280;3226;42.162;24.756;2023-05-18T08:26:08;99475.34;;;14.64;100.00
6387;BME280;3226;42.162;24.756;2023-05-18T08:28:39;99463.78;;;14.56;100.00
6387;BME280;3226;42.162;24.756;2023-05-18T08:31:08;99478.75;;;14.56;100.00
6387;BME280;3226;42.162;24.756;2023-05-18T08:33:37;99475.13;;;14.49;100.00
6387;BME280;3226;42.162;24.756;2023-05-18T08:36:06;99480.06;;;14.52;100.00
6387;BME280;3226;42.162;24.756;2023-05-18T08:38:35;99489.66;;;14.61;100.00
6387;BME280;3226;42.162;24.756;2023-05-18T08:41:09;99481.44;;;14.64;100.00
6387;BME280;3226;42.162;24.756;2023-05-18T08:43:42;99489.72;;;14.69;100.00
6387;BME280;3226;42.162;24.756;2023-05-18T08:46:19;99491.59;;;14.51;100.00
6387;BME280;3226;42.162;24.756;2023-05-18T08:48:51;99490.31;;;14.63;100.00
6387;BME280;3226;42.162;24.756;2023-05-18T08:51:20;99507.44;;;14.59;100.00
6387;BME280;3226;42.162;24.756;2023-05-18T08:53:51;99501.72;;;14.64;100.00
6387;BME280;3226;42.162;24.756;2023-05-18T08:56:22;99479.19;;;14.69;100.00
6387;BME280;3226;42.162;24.756;2023-05-18T08:58:54;99503.69;;;14.96;100.00
6387;BME280;3226;42.162;24.756;2023-05-18T09:01:23;99502.75;;;15.06;100.00
6387;BME280;3226;42.162;24.756;2023-05-18T09:03:57;99507.25;;;14.79;100.00
6387;BME280;3226;42.162;24.756;2023-05-18T09:06:25;99511.78;;;14.95;100.00
6387;BME280;3226;42.162;24.756;2023-05-18T09:08:54;99509.38;;;15.18;100.00
6387;BME280;3226;42.162;24.756;2023-05-18T09:11:25;99507.44;;;15.37;100.00
6387;BME280;3226;42.162;24.756;2023-05-18T09:13:53;99507.13;;;15.40;100.00
6387;BME280;3226;42.162;24.756;2023-05-18T09:16:21;99517.69;;;15.48;100.00
6387;BME280;3226;42.162;24.756;2023-05-18T09:18:50;99526.25;;;15.42;100.00
6387;BME280;3226;42.162;24.756;2023-05-18T09:21:19;99517.69;;;15.48;100.00
6387;BME280;3226;42.162;24.756;2023-05-18T09:23:48;99519.34;;;15.49;100.00
6387;BME280;3226;42.162;24.756;2023-05-18T09:26:18;99529.25;;;15.55;100.00
6387;BME280;3226;42.162;24.756;2023-05-18T09:28:50;99501.88;;;15.48;98.59
6387;BME280;3226;42.162;24.756;2023-05-18T09:31:20;99529.44;;;15.70;100.00
6387;BME280;3226;42.162;24.756;2023-05-18T09:33:51;99533.22;;;15.59;97.92
6387;BME280;3226;42.162;24.756;2023-05-18T09:36:24;99528.91;;;15.50;93.90
6387;BME280;3226;42.162;24.756;2023-05-18T09:38:54;99536.50;;;15.45;91.75
6387;BME280;3226;42.162;24.756;2023-05-18T09:41:25;99535.38;;;15.64;91.48
6387;BME280;3226;42.162;24.756;2023-05-18T09:43:53;99537.69;;;15.59;93.48
6387;BME280;3226;42.162;24.756;2023-05-18T09:46:21;99544.94;;;15.82;95.99
6387;BME280;3226;42.162;24.756;2023-05-18T09:48:50;99547.44;;;15.83;92.47
6387;BME280;3226;42.162;24.756;2023-05-18T09:51:20;99544.69;;;15.93;91.72
6387;BME280;3226;42.162;24.756;2023-05-18T09:53:54;99547.47;;;15.92;85.12
6387;BME280;3226;42.162;24.756;2023-05-18T09:56:23;99547.44;;;15.75;78.06
6387;BME280;3226;42.162;24.756;2023-05-18T09:58:51;99549.44;;;15.89;81.91
6387;BME280;3226;42.162;24.756;2023-05-18T10:01:19;99548.75;;;15.87;81.35
6387;BME280;3226;42.162;24.756;2023-05-18T10:03:48;99553.06;;;16.05;82.17
6387;BME280;3226;42.162;24.756;2023-05-18T10:06:16;99547.47;;;16.08;84.86
6387;BME280;3226;42.162;24.756;2023-05-18T10:08:46;99547.63;;;16.23;84.69
6387;BME280;3226;42.162;24.756;2023-05-18T10:11:17;99547.31;;;16.35;81.18
6387;BME280;3226;42.162;24.756;2023-05-18T10:13:52;99555.06;;;16.44;81.85
6387;BME280;3226;42.162;24.756;2023-05-18T10:16:22;99558.03;;;16.50;80.36
6387;BME280;3226;42.162;24.756;2023-05-18T10:18:53;99565.28;;;16.56;79.00
6387;BME280;3226;42.162;24.756;2023-05-18T10:21:23;99557.53;;;16.21;79.92
6387;BME280;3226;42.162;24.756;2023-05-18T10:23:54;99561.66;;;16.07;79.77
6387;BME280;3226;42.162;24.756;2023-05-18T10:26:25;99570.75;;;16.21;79.02
6387;BME280;3226;42.162;24.756;2023-05-18T10:28:55;99563.31;;;16.33;75.16
6387;BME280;3226;42.162;24.756;2023-05-18T10:31:26;99567.28;;;16.37;78.70
6387;BME280;3226;42.162;24.756;2023-05-18T10:33:58;99568.28;;;16.44;81.00
6387;BME280;3226;42.162;24.756;2023-05-18T10:36:29;99571.22;;;16.41;78.98
6387;BME280;3226;42.162;24.756;2023-05-18T10:38:59;99563.44;;;16.56;77.46
6387;BME280;3226;42.162;24.756;2023-05-18T10:41:29;99564.44;;;16.55;76.44
6387;BME280;3226;42.162;24.756;2023-05-18T10:43:59;99569.91;;;16.29;75.98
6387;BME280;3226;42.162;24.756;2023-05-18T10:46:30;99574.19;;;16.38;74.47
6387;BME280;3226;42.162;24.756;2023-05-18T10:49:00;99567.72;;;16.57;76.02
6387;BME280;3226;42.162;24.756;2023-05-18T10:51:30;99574.19;;;16.63;76.49
6387;BME280;3226;42.162;24.756;2023-05-18T10:54:10;99564.59;;;16.62;75.57
6387;BME280;3226;42.162;24.756;2023-05-18T10:56:42;99568.22;;;16.69;72.39
6387;BME280;3226;42.162;24.756;2023-05-18T10:59:12;99561.59;;;16.73;75.83
6387;BME280;3226;42.162;24.756;2023-05-18T11:01:41;99571.00;;;16.76;78.24
6387;BME280;3226;42.162;24.756;2023-05-18T11:04:10;99571.84;;;16.68;76.44
6387;BME280;3226;42.162;24.756;2023-05-18T11:06:38;99566.59;;;16.60;74.34
6387;BME280;3226;42.162;24.756;2023-05-18T11:09:07;99576.03;;;16.46;75.22
6387;BME280;3226;42.162;24.756;2023-05-18T11:14:29;99581.16;;;16.31;78.01
6387;BME280;3226;42.162;24.756;2023-05-18T11:17:17;99588.09;;;16.24;78.29
6387;BME280;3226;42.162;24.756;2023-05-18T11:20:11;99583.94;;;16.21;78.12
6387;BME280;3226;42.162;24.756;2023-05-18T11:22:41;99578.34;;;16.08;75.08
6387;BME280;3226;42.162;24.756;2023-05-18T11:25:36;99589.41;;;16.11;75.18
6387;BME280;3226;42.162;24.756;2023-05-18T11:28:05;99585.94;;;16.11;75.05
6387;BME280;3226;42.162;24.756;2023-05-18T11:30:46;99563.66;;;15.97;76.91
6387;BME280;3226;42.162;24.756;2023-05-18T11:33:20;99584.44;;;16.08;76.86
6387;BME280;3226;42.162;24.756;2023-05-18T11:36:00;99588.84;;;15.74;75.76
6387;BME280;3226;42.162;24.756;2023-05-18T11:38:50;99588.34;;;15.79;76.12
6387;BME280;3226;42.162;24.756;2023-05-18T11:41:30;99587.22;;;15.90;77.01
6387;BME280;3226;42.162;24.756;2023-05-18T11:44:13;99586.00;;;15.68;77.02
6387;BME280;3226;42.162;24.756;2023-05-18T11:46:54;99597.84;;;15.47;78.68
6387;BME280;3226;42.162;24.756;2023-05-18T11:49:23;99604.25;;;15.36;80.88
6387;BME280;3226;42.162;24.756;2023-05-18T11:52:12;99609.03;;;15.41;82.54
6387;BME280;3226;42.162;24.756;2023-05-18T11:54:43;99614.56;;;15.21;83.35
6387;BME280;3226;42.162;24.756;2023-05-18T11:57:13;99612.38;;;15.16;84.78
6387;BME280;3226;42.162;24.756;2023-05-18T11:59:45;99606.97;;;15.18;84.37
6387;BME280;3226;42.162;24.756;2023-05-18T12:02:20;99606.66;;;15.29;84.74
6387;BME280;3226;42.162;24.756;2023-05-18T12:04:51;99605.34;;;15.25;88.60
6387;BME280;3226;42.162;24.756;2023-05-18T12:07:20;99616.41;;;15.29;89.61
6387;BME280;3226;42.162;24.756;2023-05-18T12:09:49;99606.41;;;15.41;90.29
6387;BME280;3226;42.162;24.756;2023-05-18T12:12:17;99602.81;;;15.50;90.99
6387;BME280;3226;42.162;24.756;2023-05-18T12:14:53;99591.03;;;15.36;90.84
6387;BME280;3226;42.162;24.756;2023-05-18T12:17:23;99614.78;;;15.36;90.48
6387;BME280;3226;42.162;24.756;2023-05-18T12:19:51;99628.78;;;15.37;90.81
6387;BME280;3226;42.162;24.756;2023-05-18T12:22:19;99625.81;;;15.31;90.01
6387;BME280;3226;42.162;24.756;2023-05-18T12:24:50;99620.13;;;15.10;91.54
6387;BME280;3226;42.162;24.756;2023-05-18T12:27:20;99615.41;;;14.95;91.86
6387;BME280;3226;42.162;24.756;2023-05-18T12:29:48;99629.88;;;15.17;93.88
6387;BME280;3226;42.162;24.756;2023-05-18T12:32:18;99625.25;;;15.20;93.74
6387;BME280;3226;42.162;24.756;2023-05-18T12:34:49;99634.72;;;15.30;94.59
6387;BME280;3226;42.162;24.756;2023-05-18T12:37:18;99630.97;;;15.41;92.81
6387;BME280;3226;42.162;24.756;2023-05-18T12:39:53;99638.34;;;15.29;94.59
6387;BME280;3226;42.162;24.756;2023-05-18T12:42:21;99621.91;;;15.09;93.51
6387;BME280;3226;42.162;24.756;2023-05-18T12:44:49;99631.75;;;14.99;92.25
6387;BME280;3226;42.162;24.756;2023-05-18T12:47:17;99631.34;;;15.12;93.77
6387;BME280;3226;42.162;24.756;2023-05-18T12:49:48;99626.97;;;15.02;90.17
6387;BME280;3226;42.162;24.756;2023-05-18T12:52:16;99633.09;;;15.03;89.17
6387;BME280;3226;42.162;24.756;2023-05-18T12:54:49;99619.88;;;14.95;89.59
6387;BME280;3226;42.162;24.756;2023-05-18T12:57:21;99639.63;;;14.91;93.04
6387;BME280;3226;42.162;24.756;2023-05-18T12:59:52;99643.44;;;14.96;93.90
6387;BME280;3226;42.162;24.756;2023-05-18T13:02:31;99636.94;;;15.09;95.32
6387;BME280;3226;42.162;24.756;2023-05-18T13:05:05;99638.75;;;15.16;95.26
6387;BME280;3226;42.162;24.756;2023-05-18T13:07:36;99642.28;;;15.25;96.15
6387;BME280;3226;42.162;24.756;2023-05-18T13:10:07;99637.69;;;15.36;96.86
6387;BME280;3226;42.162;24.756;2023-05-18T13:12:38;99634.47;;;15.50;93.60
6387;BME280;3226;42.162;24.756;2023-05-18T13:15:14;99634.69;;;15.65;92.29
6387;BME280;3226;42.162;24.756;2023-05-18T13:17:57;99639.97;;;15.73;91.15
6387;BME280;3226;42.162;24.756;2023-05-18T13:20:32;99643.81;;;15.87;91.98